Погода Вирадорона неделю

Сан-Паулу, Бразилия

29 февраля-06 марта
  • 29февраля
    Сегодня
    +23°
    +35°
    Практически безоблачно
    ВремяПогодаТемператураВлажностьДавлениеВетер, м/сВероятность осадков
    00:00Небольшая облачность+28°C72 %714 мм2.1 м/с5 %
    03:00Облачно с прояснениями+26°C82 %713 мм1.6 м/с5 %
    06:00Практически безоблачно+25°C89 %713 мм1.3 м/с5 %
    09:00Небольшая облачность+28°C65 %715 мм0.7 м/с5 %
    12:00Практически безоблачно+33°C48 %715 мм1.6 м/с20 %
    15:00Практически безоблачно+34°C46 %712 мм1.9 м/с27 %
    18:00Облачно с прояснениями+34°C57 %712 мм1.3 м/с26 %
    21:00Небольшая облачность и лёгкий дождик+27°C80 %714 мм2.2 м/с65 %
  • 01марта
    Пятница
    +22°
    +35°
    Небольшая облачность
    ВремяПогодаТемператураВлажностьДавлениеВетер, м/сВероятность осадков
    00:00Небольшая облачность+26°C87 %714 мм1.5 м/с7 %
    03:00Небольшая облачность+25°C94 %712 мм1.0 м/с2 %
    06:00Ясно и безоблачно+24°C98 %712 мм1.2 м/с2 %
    09:00Ясно и безоблачно+28°C71 %714 мм1.3 м/с4 %
    12:00Ясно и безоблачно+33°C50 %714 мм1.7 м/с4 %
    15:00Небольшая облачность+34°C45 %711 мм4.1 м/с24 %
    18:00Облачно с прояснениями+32°C61 %712 мм2.7 м/с42 %
    21:00Небольшая облачность, ливень+26°C90 %714 мм2.8 м/с65 %
  • 02марта
    Суббота
    +22°
    +33°
    Практически безоблачно
    ВремяПогодаТемператураВлажностьДавлениеВетер, м/сВероятность осадков
    00:00Ясно и безоблачно+24°C95 %713 мм1.7 м/с28 %
    03:00Ясно и безоблачно+23°C97 %711 мм1.3 м/с19 %
    06:00Ясно и безоблачно+22°C98 %712 мм1.8 м/с11 %
    09:00Ясно и безоблачно+25°C79 %714 мм1.9 м/с5 %
    12:00Ясно и безоблачно+31°C60 %714 мм0.8 м/с5 %
    15:00Практически безоблачно+33°C53 %712 мм2.4 м/с4 %
    18:00Практически безоблачно+31°C61 %711 мм1.9 м/с12 %
    21:00Ясно и безоблачно+27°C73 %712 мм1.9 м/с19 %
  • 03марта
    Воскресенье
    +23°
    +34°
    Ясно и безоблачно
    ВремяПогодаТемператураВлажностьДавлениеВетер, м/сВероятность осадков
    00:00Ясно и безоблачно+26°C72 %713 мм2.9 м/с18 %
    03:00Практически безоблачно+24°C83 %712 мм2.2 м/с10 %
    06:00Ясно и безоблачно+23°C89 %713 мм1.4 м/с6 %
    09:00Ясно и безоблачно+27°C71 %714 мм2.0 м/с4 %
    12:00Практически безоблачно+32°C54 %713 мм1.1 м/с5 %
    15:00Ясно и безоблачно+34°C50 %711 мм0.8 м/с5 %
    18:00Ясно и безоблачно+33°C56 %710 мм1.7 м/с5 %
    21:00Ясно и безоблачно+28°C70 %712 мм1.5 м/с4 %
  • 04марта
    Понедельник
    +22°
    +35°
    Ясно и безоблачно
    ВремяПогодаТемператураВлажностьДавлениеВетер, м/сВероятность осадков
    00:00Небольшая облачность+27°C73 %713 мм1.9 м/с3 %
    03:00Небольшая облачность+25°C80 %712 мм1.7 м/с4 %
    06:00Ясно и безоблачно+24°C87 %712 мм1.5 м/с5 %
    09:00Ясно и безоблачно+28°C69 %714 мм2.8 м/с5 %
    12:00Практически безоблачно+33°C52 %714 мм2.9 м/с5 %
    15:00Ясно и безоблачно+34°C47 %711 мм1.4 м/с5 %
    18:00Ясно и безоблачно+33°C60 %710 мм0.9 м/с7 %
    21:00Практически безоблачно+30°C62 %712 мм2.0 м/с12 %
Мы используем cookies
Соглашаюсь